createdAt,value
2022-09-28T00:01:17.806Z,100.00
2022-09-28T00:03:48.098Z,100.00
2022-09-28T00:06:19.640Z,100.00
2022-09-28T00:08:50.270Z,100.00
2022-09-28T00:11:20.858Z,100.00
2022-09-28T00:13:51.602Z,100.00
2022-09-28T00:16:21.978Z,100.00
2022-09-28T00:18:51.576Z,100.00
2022-09-28T00:21:22.220Z,100.00
2022-09-28T00:24:12.288Z,100.00
2022-09-28T00:26:41.825Z,100.00
2022-09-28T00:29:16.611Z,100.00
2022-09-28T00:31:44.835Z,100.00
2022-09-28T00:34:14.603Z,100.00
2022-09-28T00:36:45.705Z,100.00
2022-09-28T00:39:15.089Z,100.00
2022-09-28T00:41:43.225Z,100.00
2022-09-28T00:44:39.187Z,100.00
2022-09-28T00:47:35.481Z,100.00
2022-09-28T00:50:09.957Z,100.00
2022-09-28T00:52:43.800Z,100.00
2022-09-28T00:55:16.745Z,100.00
2022-09-28T00:57:50.131Z,100.00
2022-09-28T01:00:18.265Z,100.00
2022-09-28T01:02:47.522Z,100.00
2022-09-28T01:05:19.082Z,100.00
2022-09-28T01:07:49.398Z,100.00
2022-09-28T01:10:17.510Z,100.00
2022-09-28T01:12:45.668Z,100.00
2022-09-28T01:15:14.789Z,100.00
2022-09-28T01:17:57.866Z,100.00
2022-09-28T01:20:40.405Z,100.00
2022-09-28T01:24:09.723Z,100.00
2022-09-28T01:26:57.735Z,100.00
2022-09-28T01:29:37.009Z,100.00
2022-09-28T01:32:16.598Z,100.00
2022-09-28T01:34:54.013Z,100.00
2022-09-28T01:37:25.344Z,100.00
2022-09-28T01:39:57.072Z,100.00
2022-09-28T01:42:31.719Z,100.00
2022-09-28T01:45:16.166Z,100.00
2022-09-28T01:47:47.434Z,100.00
2022-09-28T01:50:21.893Z,100.00
2022-09-28T01:52:54.899Z,100.00
2022-09-28T01:55:30.995Z,100.00
2022-09-28T01:58:04.809Z,100.00
2022-09-28T02:00:35.885Z,100.00
2022-09-28T02:03:09.782Z,100.00
2022-09-28T02:05:40.657Z,100.00
2022-09-28T02:08:14.553Z,100.00
2022-09-28T02:10:45.065Z,100.00
2022-09-28T02:13:19.924Z,100.00
2022-09-28T02:15:54.913Z,100.00
2022-09-28T02:18:23.192Z,100.00
2022-09-28T02:20:57.977Z,100.00
2022-09-28T02:23:28.336Z,100.00
2022-09-28T02:26:03.425Z,100.00
2022-09-28T02:28:32.787Z,100.00
2022-09-28T02:31:01.800Z,100.00
2022-09-28T02:33:35.235Z,100.00
2022-09-28T02:36:04.653Z,100.00
2022-09-28T02:38:33.078Z,100.00
2022-09-28T02:41:06.815Z,100.00
2022-09-28T02:43:51.395Z,100.00
2022-09-28T02:46:31.606Z,100.00
2022-09-28T02:49:23.406Z,100.00
2022-09-28T02:52:07.118Z,100.00
2022-09-28T02:54:53.055Z,100.00
2022-09-28T02:57:35.733Z,100.00
2022-09-28T03:00:10.318Z,100.00
2022-09-28T03:02:50.858Z,100.00
2022-09-28T03:05:23.864Z,100.00
2022-09-28T03:07:58.853Z,100.00
2022-09-28T03:10:35.885Z,100.00
2022-09-28T03:13:05.677Z,100.00
2022-09-28T03:15:37.200Z,100.00
2022-09-28T03:18:06.008Z,100.00
2022-09-28T03:20:35.295Z,100.00
2022-09-28T03:23:23.699Z,100.00
2022-09-28T03:25:51.363Z,100.00
2022-09-28T03:28:19.677Z,100.00
2022-09-28T03:30:49.010Z,100.00
2022-09-28T03:33:17.034Z,100.00
2022-09-28T03:35:48.332Z,100.00
2022-09-28T03:38:17.052Z,100.00
2022-09-28T03:40:45.555Z,100.00
2022-09-28T03:43:13.646Z,100.00
2022-09-28T03:45:42.007Z,100.00
2022-09-28T03:48:11.355Z,100.00
2022-09-28T03:50:39.359Z,100.00
2022-09-28T03:53:07.322Z,100.00
2022-09-28T03:55:35.436Z,100.00
2022-09-28T03:58:03.416Z,100.00
2022-09-28T04:00:31.425Z,100.00
2022-09-28T04:02:59.455Z,100.00
2022-09-28T04:05:28.875Z,100.00
2022-09-28T04:07:57.933Z,100.00
2022-09-28T04:10:26.435Z,100.00
2022-09-28T04:12:56.204Z,100.00
2022-09-28T04:15:24.959Z,100.00
2022-09-28T04:17:53.243Z,100.00
2022-09-28T04:20:22.146Z,100.00
2022-09-28T04:22:51.782Z,100.00
2022-09-28T04:25:19.738Z,100.00
2022-09-28T04:28:05.154Z,100.00
2022-09-28T04:30:33.501Z,100.00
2022-09-28T04:33:01.573Z,100.00
2022-09-28T04:35:29.550Z,100.00
2022-09-28T04:37:59.136Z,100.00
2022-09-28T04:40:27.151Z,100.00
2022-09-28T04:42:56.160Z,100.00
2022-09-28T04:45:26.135Z,100.00
2022-09-28T04:47:54.655Z,100.00
2022-09-28T04:50:22.749Z,100.00
2022-09-28T04:52:50.675Z,100.00
2022-09-28T04:55:20.738Z,100.00
2022-09-28T04:57:48.760Z,100.00
2022-09-28T05:00:18.491Z,100.00
2022-09-28T05:02:47.055Z,100.00
2022-09-28T05:05:15.125Z,100.00
2022-09-28T05:07:43.093Z,100.00
2022-09-28T05:10:11.204Z,100.00
2022-09-28T05:12:41.189Z,100.00
2022-09-28T05:15:09.559Z,100.00
2022-09-28T05:17:37.581Z,100.00
2022-09-28T05:20:06.568Z,100.00
2022-09-28T05:22:34.846Z,100.00
2022-09-28T05:25:03.031Z,100.00
2022-09-28T05:27:31.128Z,100.00
2022-09-28T05:30:00.542Z,100.00
2022-09-28T05:32:28.537Z,100.00
2022-09-28T05:34:56.993Z,100.00
2022-09-28T05:37:26.003Z,100.00
2022-09-28T05:39:54.071Z,100.00
2022-09-28T05:42:22.226Z,100.00
2022-09-28T05:44:50.474Z,100.00
2022-09-28T05:47:20.118Z,100.00
2022-09-28T05:49:48.207Z,100.00
2022-09-28T05:52:16.218Z,100.00
2022-09-28T05:54:44.339Z,100.00
2022-09-28T05:57:12.780Z,100.00
2022-09-28T05:59:40.812Z,100.00
2022-09-28T06:02:08.928Z,100.00
2022-09-28T06:04:38.453Z,100.00
2022-09-28T06:07:06.593Z,100.00
2022-09-28T06:09:34.592Z,100.00
2022-09-28T06:12:03.762Z,100.00
2022-09-28T06:14:32.329Z,100.00
2022-09-28T06:17:00.535Z,100.00
2022-09-28T06:19:28.764Z,100.00
2022-09-28T06:21:59.714Z,100.00
2022-09-28T06:24:27.686Z,100.00
2022-09-28T06:26:55.711Z,100.00
2022-09-28T06:29:23.704Z,100.00
2022-09-28T06:31:51.680Z,100.00
2022-09-28T06:34:21.505Z,100.00
2022-09-28T06:36:49.484Z,100.00
2022-09-28T06:39:18.962Z,100.00
2022-09-28T06:41:47.045Z,100.00
2022-09-28T06:44:15.390Z,100.00
2022-09-28T06:46:43.534Z,100.00
2022-09-28T06:49:14.195Z,100.00
2022-09-28T06:51:47.373Z,100.00
2022-09-28T06:54:15.583Z,100.00
2022-09-28T06:56:44.994Z,100.00
2022-09-28T06:59:13.061Z,100.00
2022-09-28T07:01:41.202Z,100.00
2022-09-28T07:04:09.264Z,100.00
2022-09-28T07:06:38.624Z,100.00
2022-09-28T07:09:26.257Z,100.00
2022-09-28T07:11:56.867Z,100.00
2022-09-28T07:14:44.621Z,100.00
2022-09-28T07:17:14.940Z,100.00
2022-09-28T07:19:43.418Z,100.00
2022-09-28T07:22:18.855Z,100.00
2022-09-28T07:24:48.236Z,100.00
2022-09-28T07:27:18.083Z,100.00
2022-09-28T07:29:46.046Z,100.00
2022-09-28T07:32:14.089Z,100.00
2022-09-28T07:34:43.874Z,100.00
2022-09-28T07:37:12.548Z,100.00
2022-09-28T07:39:54.768Z,100.00
2022-09-28T07:42:24.596Z,100.00
2022-09-28T07:44:52.802Z,100.00
2022-09-28T07:47:30.846Z,100.00
2022-09-28T07:50:00.548Z,100.00
2022-09-28T07:52:28.933Z,100.00
2022-09-28T07:54:57.002Z,100.00
2022-09-28T07:57:26.499Z,100.00
2022-09-28T07:59:54.908Z,100.00
2022-09-28T08:02:23.186Z,100.00
2022-09-28T08:04:51.750Z,100.00
2022-09-28T08:07:23.628Z,100.00
2022-09-28T08:09:52.119Z,100.00
2022-09-28T08:12:21.251Z,99.67
2022-09-28T08:14:52.292Z,98.42
2022-09-28T08:17:20.420Z,94.71
2022-09-28T08:20:05.565Z,93.63
2022-09-28T08:22:33.559Z,94.84
2022-09-28T08:25:01.524Z,92.95
2022-09-28T08:27:29.495Z,92.50
2022-09-28T08:29:59.073Z,92.18
2022-09-28T08:32:27.061Z,93.48
2022-09-28T08:34:56.104Z,92.95
2022-09-28T08:37:24.135Z,90.73
2022-09-28T08:39:52.250Z,88.38
2022-09-28T08:42:34.238Z,84.45
2022-09-28T08:45:09.989Z,85.03
2022-09-28T08:48:05.946Z,83.39
2022-09-28T08:50:38.042Z,83.55
2022-09-28T08:53:20.946Z,81.19
2022-09-28T08:55:49.495Z,81.46
2022-09-28T08:58:21.615Z,81.22
2022-09-28T09:00:53.519Z,79.54
2022-09-28T09:03:24.675Z,80.08
2022-09-28T09:06:05.188Z,78.43
2022-09-28T09:08:50.443Z,77.31
2022-09-28T09:11:32.114Z,76.30
2022-09-28T09:14:23.153Z,70.95
2022-09-28T09:17:01.188Z,70.72
2022-09-28T09:19:36.788Z,70.75
2022-09-28T09:22:15.292Z,69.42
2022-09-28T09:24:50.203Z,65.84
2022-09-28T09:27:37.642Z,62.60
2022-09-28T09:30:11.131Z,61.29
2022-09-28T09:32:59.812Z,60.78
2022-09-28T09:35:47.587Z,60.51
2022-09-28T09:38:33.086Z,59.69
2022-09-28T09:44:12.178Z,58.08
2022-09-28T09:46:46.933Z,57.75
2022-09-28T09:49:20.849Z,57.15
2022-09-28T09:51:54.082Z,57.12
2022-09-28T09:54:26.250Z,56.89
2022-09-28T09:56:58.883Z,57.01
2022-09-28T09:59:33.653Z,56.34
2022-09-28T10:02:03.934Z,56.16
2022-09-28T10:04:39.032Z,56.83
2022-09-28T10:07:10.713Z,57.81
2022-09-28T10:09:44.100Z,58.02
2022-09-28T10:12:20.061Z,58.19
2022-09-28T10:14:48.335Z,57.01
2022-09-28T10:17:19.780Z,57.28
2022-09-28T10:19:49.203Z,54.82
2022-09-28T10:22:21.990Z,55.12
2022-09-28T10:24:53.164Z,56.28
2022-09-28T10:27:25.181Z,57.81
2022-09-28T10:29:56.558Z,57.98
2022-09-28T10:32:25.949Z,57.38
2022-09-28T10:35:22.809Z,58.42
2022-09-28T10:37:54.632Z,58.52
2022-09-28T10:40:43.761Z,58.24
2022-09-28T10:43:25.789Z,57.34
2022-09-28T10:46:02.977Z,57.90
2022-09-28T10:48:40.085Z,57.74
2022-09-28T10:51:10.004Z,58.02
2022-09-28T10:53:38.507Z,57.56
2022-09-28T10:56:08.908Z,57.07
2022-09-28T10:58:40.592Z,57.37
2022-09-28T11:01:12.063Z,56.49
2022-09-28T11:03:51.158Z,55.38
2022-09-28T11:06:28.411Z,55.16
2022-09-28T11:08:58.769Z,54.22
2022-09-28T11:11:27.209Z,54.03
2022-09-28T11:14:00.488Z,53.47
2022-09-28T11:16:30.881Z,53.73
2022-09-28T11:19:04.272Z,53.80
2022-09-28T11:21:43.434Z,53.34
2022-09-28T11:24:21.606Z,51.86
2022-09-28T11:26:53.700Z,52.78
2022-09-28T11:29:26.913Z,53.32
2022-09-28T11:32:00.355Z,53.62
2022-09-28T11:34:54.927Z,52.72
2022-09-28T11:37:43.552Z,52.66
2022-09-28T11:40:24.137Z,52.07
2022-09-28T11:43:02.022Z,50.37
2022-09-28T11:45:42.481Z,51.50
2022-09-28T11:48:15.643Z,51.19
2022-09-28T11:50:50.684Z,51.10
2022-09-28T11:53:26.802Z,48.82
2022-09-28T11:56:04.219Z,49.35
2022-09-28T11:58:36.643Z,49.83
2022-09-28T12:01:09.907Z,50.24
2022-09-28T12:03:43.223Z,50.73
2022-09-28T12:06:16.991Z,50.58
2022-09-28T12:08:52.388Z,51.29
2022-09-28T12:11:25.006Z,48.15
2022-09-28T12:13:56.168Z,46.57
2022-09-28T12:16:53.522Z,46.60
2022-09-28T12:19:20.305Z,45.92
2022-09-28T12:21:51.856Z,45.94
2022-09-28T12:24:26.160Z,45.99
2022-09-28T12:27:00.586Z,44.44
2022-09-28T12:29:34.400Z,44.09
2022-09-28T12:32:11.068Z,43.36
2022-09-28T12:34:39.200Z,41.94
2022-09-28T12:37:30.768Z,42.70
2022-09-28T12:40:23.480Z,42.97
2022-09-28T12:43:07.549Z,44.01
2022-09-28T12:46:11.090Z,45.57
2022-09-28T12:49:47.243Z,44.60
2022-09-28T12:51:50.584Z,43.05
2022-09-28T12:54:43.193Z,43.37
2022-09-28T12:57:32.006Z,41.73
2022-09-28T13:00:06.066Z,41.13
2022-09-28T13:03:09.044Z,39.11
2022-09-28T13:06:20.255Z,39.90
2022-09-28T13:09:05.826Z,40.94
2022-09-28T13:11:42.610Z,42.35
2022-09-28T13:14:38.045Z,40.49
2022-09-28T13:17:17.295Z,41.34
2022-09-28T13:19:52.033Z,40.87
2022-09-28T13:22:29.841Z,41.27
2022-09-28T13:25:03.791Z,40.92
2022-09-28T13:27:38.230Z,41.47
2022-09-28T13:30:08.998Z,41.27
2022-09-28T13:32:39.124Z,41.79
2022-09-28T13:35:07.708Z,42.16
2022-09-28T13:37:35.731Z,42.26
2022-09-28T13:40:06.297Z,42.30
2022-09-28T13:43:00.507Z,43.57
2022-09-28T13:45:41.047Z,42.92
2022-09-28T13:48:16.117Z,43.52
2022-09-28T13:51:06.136Z,43.72
2022-09-28T13:53:58.882Z,42.74
2022-09-28T13:56:37.934Z,43.25
2022-09-28T13:59:17.463Z,43.38
2022-09-28T14:01:55.873Z,41.65
2022-09-28T14:04:26.359Z,41.74
2022-09-28T14:06:57.992Z,42.68
2022-09-28T14:09:43.458Z,43.56
2022-09-28T14:12:45.712Z,42.52
2022-09-28T14:15:43.418Z,43.68
2022-09-28T14:18:29.947Z,43.87
2022-09-28T14:21:22.904Z,43.83
2022-09-28T14:24:09.111Z,44.12
2022-09-28T14:27:18.749Z,42.93
2022-09-28T14:29:56.028Z,43.49
2022-09-28T14:32:26.912Z,44.40
2022-09-28T14:35:04.615Z,44.67
2022-09-28T14:37:53.196Z,44.91
2022-09-28T14:40:41.605Z,44.70
2022-09-28T14:43:25.536Z,43.58
2022-09-28T14:46:28.458Z,44.30
2022-09-28T14:48:58.411Z,44.50
2022-09-28T14:52:04.576Z,41.73
2022-09-28T14:54:53.597Z,42.49
2022-09-28T14:57:25.556Z,43.49
2022-09-28T14:59:54.402Z,44.38
2022-09-28T15:02:26.581Z,44.43
2022-09-28T15:05:00.414Z,43.87
2022-09-28T15:07:34.377Z,44.39
2022-09-28T15:10:02.746Z,43.11
2022-09-28T15:12:32.178Z,42.78
2022-09-28T15:15:02.804Z,42.43
2022-09-28T15:17:39.154Z,43.33
2022-09-28T15:20:30.177Z,44.24
2022-09-28T15:23:01.112Z,44.61
2022-09-28T15:25:31.911Z,45.01
2022-09-28T15:28:04.665Z,45.39
2022-09-28T15:30:33.941Z,45.50
2022-09-28T15:33:18.191Z,45.53
2022-09-28T15:35:50.935Z,46.01
2022-09-28T15:38:20.448Z,46.37
2022-09-28T15:40:48.809Z,46.70
2022-09-28T15:43:29.121Z,47.25
2022-09-28T15:46:02.791Z,47.74
2022-09-28T15:48:34.444Z,48.30
2022-09-28T15:51:10.937Z,48.73
2022-09-28T15:53:47.770Z,49.10
2022-09-28T15:56:15.780Z,49.59
2022-09-28T15:58:44.358Z,50.24
2022-09-28T16:01:27.453Z,50.93
2022-09-28T16:03:55.769Z,52.04
2022-09-28T16:06:24.280Z,52.42
2022-09-28T16:08:53.886Z,52.68
2022-09-28T16:11:24.272Z,53.09
2022-09-28T16:14:01.620Z,53.50
2022-09-28T16:16:31.954Z,53.81
2022-09-28T16:19:01.921Z,54.52
2022-09-28T16:21:43.793Z,54.98
2022-09-28T16:24:22.821Z,56.19
2022-09-28T16:26:58.569Z,56.49
2022-09-28T16:29:29.535Z,56.80
2022-09-28T16:31:57.532Z,57.32
2022-09-28T16:34:27.307Z,58.04
2022-09-28T16:36:55.857Z,58.13
2022-09-28T16:39:25.524Z,58.73
2022-09-28T16:41:56.403Z,58.63
2022-09-28T16:44:27.056Z,58.91
2022-09-28T16:47:00.765Z,59.23
2022-09-28T16:49:31.849Z,58.68
2022-09-28T16:52:00.445Z,59.13
2022-09-28T16:54:48.299Z,57.08
2022-09-28T16:57:16.670Z,56.12
2022-09-28T16:59:45.180Z,55.35
2022-09-28T17:02:42.106Z,53.86
2022-09-28T17:05:07.612Z,53.66
2022-09-28T17:07:35.776Z,52.67
2022-09-28T17:10:15.826Z,51.19
2022-09-28T17:12:44.429Z,50.09
2022-09-28T17:15:13.251Z,49.98
2022-09-28T17:17:41.858Z,49.45
2022-09-28T17:20:23.221Z,49.18
2022-09-28T17:22:51.999Z,49.20
2022-09-28T17:25:23.120Z,48.62
2022-09-28T17:27:52.584Z,48.72
2022-09-28T17:30:23.753Z,48.29
2022-09-28T17:32:53.769Z,48.64
2022-09-28T17:35:24.616Z,48.48
2022-09-28T17:37:53.707Z,48.53
2022-09-28T17:40:25.335Z,48.67
2022-09-28T17:42:56.744Z,48.60
2022-09-28T17:45:27.065Z,48.62
2022-09-28T17:47:55.345Z,48.54
2022-09-28T17:50:26.355Z,48.87
2022-09-28T17:52:55.005Z,48.96
2022-09-28T17:55:28.935Z,48.95
2022-09-28T17:57:57.678Z,49.12
2022-09-28T18:00:27.865Z,49.26
2022-09-28T18:02:56.751Z,49.57
2022-09-28T18:05:25.692Z,50.15
2022-09-28T18:07:53.791Z,50.44
2022-09-28T18:10:24.153Z,50.91
2022-09-28T18:12:53.542Z,50.75
2022-09-28T18:15:21.879Z,51.48
2022-09-28T18:17:50.108Z,51.59
2022-09-28T18:20:18.239Z,51.66
2022-09-28T18:22:46.396Z,52.44
2022-09-28T18:25:14.393Z,52.57
2022-09-28T18:27:42.680Z,53.11
2022-09-28T18:30:13.875Z,53.03
2022-09-28T18:32:41.829Z,53.59
2022-09-28T18:35:11.268Z,53.66
2022-09-28T18:37:41.201Z,53.97
2022-09-28T18:40:12.841Z,54.07
2022-09-28T18:42:41.017Z,54.28
2022-09-28T18:45:12.570Z,54.35
2022-09-28T18:47:41.051Z,54.48
2022-09-28T18:50:11.622Z,54.51
2022-09-28T18:52:40.213Z,54.32
2022-09-28T18:55:09.537Z,54.08
2022-09-28T18:57:37.894Z,54.27
2022-09-28T19:00:08.975Z,54.16
2022-09-28T19:02:39.173Z,53.99
2022-09-28T19:05:08.973Z,54.20
2022-09-28T19:07:37.406Z,54.13
2022-09-28T19:10:06.302Z,54.18
2022-09-28T19:12:34.633Z,53.90
2022-09-28T19:15:02.777Z,54.06
2022-09-28T19:17:30.936Z,53.99
2022-09-28T19:20:00.534Z,54.04
2022-09-28T19:22:28.996Z,54.03
2022-09-28T19:24:57.016Z,53.78
2022-09-28T19:27:24.962Z,53.98
2022-09-28T19:29:52.976Z,53.49
2022-09-28T19:32:20.960Z,53.42
2022-09-28T19:34:48.923Z,53.91
2022-09-28T19:37:18.311Z,53.58
2022-09-28T19:39:46.527Z,53.04
2022-09-28T19:42:14.564Z,52.39
2022-09-28T19:44:42.517Z,52.22
2022-09-28T19:47:11.735Z,52.25
2022-09-28T19:49:41.073Z,51.80
2022-09-28T19:52:17.387Z,52.07
2022-09-28T19:54:56.954Z,52.53
2022-09-28T19:57:26.103Z,53.01
2022-09-28T19:59:57.877Z,53.07
2022-09-28T20:02:29.190Z,53.80
2022-09-28T20:04:57.249Z,54.34
2022-09-28T20:07:25.233Z,55.31
2022-09-28T20:09:54.995Z,56.04
2022-09-28T20:12:24.009Z,56.44
2022-09-28T20:14:51.985Z,56.61
2022-09-28T20:17:21.775Z,56.98
2022-09-28T20:19:51.813Z,56.99
2022-09-28T20:22:20.137Z,56.71
2022-09-28T20:24:48.328Z,56.77
2022-09-28T20:27:17.770Z,56.82
2022-09-28T20:29:45.724Z,56.49
2022-09-28T20:32:14.336Z,56.75
2022-09-28T20:34:42.350Z,56.87
2022-09-28T20:37:13.753Z,57.37
2022-09-28T20:39:44.924Z,57.79
2022-09-28T20:42:14.397Z,57.89
2022-09-28T20:44:44.275Z,57.88
2022-09-28T20:47:12.228Z,58.00
2022-09-28T20:49:40.211Z,58.19
2022-09-28T20:52:08.157Z,57.96
2022-09-28T20:54:36.273Z,58.02
2022-09-28T20:57:17.355Z,58.18
2022-09-28T20:59:49.777Z,58.51
2022-09-28T21:02:21.808Z,59.32
2022-09-28T21:04:49.819Z,59.60
2022-09-28T21:07:17.758Z,59.13
2022-09-28T21:09:45.799Z,59.18
2022-09-28T21:12:15.533Z,59.88
2022-09-28T21:14:43.500Z,60.54
2022-09-28T21:17:12.906Z,61.53
2022-09-28T21:19:40.890Z,62.28
2022-09-28T21:22:08.836Z,64.08
2022-09-28T21:24:37.012Z,65.50
2022-09-28T21:27:05.183Z,66.23
2022-09-28T21:29:33.131Z,66.62
2022-09-28T21:32:01.334Z,67.24
2022-09-28T21:34:30.898Z,68.04
2022-09-28T21:36:59.025Z,68.68
2022-09-28T21:39:27.012Z,69.20
2022-09-28T21:41:54.985Z,70.29
2022-09-28T21:44:23.006Z,71.08
2022-09-28T21:46:51.159Z,72.69
2022-09-28T21:49:19.361Z,72.86
2022-09-28T21:51:48.688Z,73.96
2022-09-28T21:54:16.726Z,75.86
2022-09-28T21:56:44.702Z,76.21
2022-09-28T21:59:12.672Z,76.82
2022-09-28T22:01:42.982Z,76.91
2022-09-28T22:04:11.855Z,77.13
2022-09-28T22:06:39.932Z,77.37
2022-09-28T22:09:09.516Z,77.43
2022-09-28T22:11:38.247Z,77.67
2022-09-28T22:14:06.223Z,78.42
2022-09-28T22:16:34.383Z,78.57
2022-09-28T22:19:02.350Z,78.62
2022-09-28T22:21:31.901Z,79.43
2022-09-28T22:24:02.055Z,79.96
2022-09-28T22:26:33.661Z,80.16
2022-09-28T22:29:03.718Z,80.42
2022-09-28T22:31:34.229Z,81.09
2022-09-28T22:34:02.749Z,82.18
2022-09-28T22:36:31.112Z,82.01
2022-09-28T22:38:59.650Z,82.16
2022-09-28T22:41:28.398Z,82.32
2022-09-28T22:43:57.834Z,82.40
2022-09-28T22:46:27.409Z,83.83
2022-09-28T22:48:57.469Z,84.07
2022-09-28T22:51:26.971Z,83.88
2022-09-28T22:53:54.991Z,83.95
2022-09-28T22:56:23.175Z,84.80
2022-09-28T22:58:51.279Z,85.09
2022-09-28T23:01:22.571Z,84.81
2022-09-28T23:03:51.637Z,84.71
2022-09-28T23:06:21.390Z,85.46
2022-09-28T23:08:50.497Z,86.14
2022-09-28T23:11:18.918Z,86.23
2022-09-28T23:13:50.173Z,86.72
2022-09-28T23:16:18.526Z,87.16
2022-09-28T23:18:49.469Z,88.30
2022-09-28T23:21:19.298Z,88.24
2022-09-28T23:23:52.017Z,89.04
2022-09-28T23:26:22.301Z,89.91
2022-09-28T23:28:50.280Z,89.96
2022-09-28T23:31:20.362Z,90.58
2022-09-28T23:33:50.163Z,91.34
2022-09-28T23:36:18.836Z,91.60
2022-09-28T23:38:46.790Z,91.91
2022-09-28T23:41:14.754Z,91.40
2022-09-28T23:43:42.664Z,91.28
2022-09-28T23:46:10.708Z,91.99
2022-09-28T23:48:38.780Z,91.56
2022-09-28T23:51:08.738Z,92.57
2022-09-28T23:53:36.900Z,92.82
2022-09-28T23:56:05.045Z,92.60
2022-09-28T23:58:33.052Z,92.82
